Time;durP1;ratioP1;P1;durP2;ratioP2;P2;SDS_P1;SDS_P2;PMS_P1;PMS_P2;Temp;Humidity;BMP_temperature;BMP_pressure;BME280_temperature;BME280_humidity;BME280_pressure;Samples;Min_cycle;Max_cycle;Signal;HPM_P1;HPM_P2
2023/05/25 00:00:33;;;;;;;;;;;;;;;30.16;28.79;98632.47;5073658;28;19928;-88
2023/05/25 00:02:59;;;;;;;;;;;;;;;30.18;28.32;98626.38;5071402;28;19940;-89
2023/05/25 00:05:26;;;;;;;;;;;;;;;30.10;28.90;98634.34;5072387;28;20269;-88
2023/05/25 00:07:53;;;;;;;;;;;;;;;29.85;28.96;98629.56;5074413;28;20417;-89
2023/05/25 00:10:20;;;;;;;;;;;;;;;29.73;29.16;98635.28;5074643;28;20364;-89
2023/05/25 00:12:46;;;;;;;;;;;;;;;29.77;29.27;98630.31;5079580;28;19988;-89
2023/05/25 00:15:12;;;;;;;;;;;;;;;29.77;29.31;98630.31;5073367;28;19920;-88
2023/05/25 00:17:39;;;;;;;;;;;;;;;29.67;28.66;98631.44;5078799;28;20015;-89
2023/05/25 00:20:06;;;;;;;;;;;;;;;29.16;29.21;98642.09;5080818;28;19920;-89
2023/05/25 00:22:33;;;;;;;;;;;;;;;29.29;29.39;98632.38;5073875;28;19920;-89
2023/05/25 00:24:59;;;;;;;;;;;;;;;29.16;29.83;98625.94;5070014;28;19927;-89
2023/05/25 00:27:25;;;;;;;;;;;;;;;29.09;29.34;98631.81;5080171;28;19967;-89
2023/05/25 00:29:51;;;;;;;;;;;;;;;29.02;30.12;98634.09;5082851;28;19924;-88
2023/05/25 00:32:17;;;;;;;;;;;;;;;28.94;30.23;98630.69;5073026;28;19921;-88
2023/05/25 00:34:43;;;;;;;;;;;;;;;28.94;30.17;98632.75;5075791;28;19979;-89
2023/05/25 00:37:09;;;;;;;;;;;;;;;28.62;30.00;98628.94;5072715;28;20337;-88
2023/05/25 00:39:35;;;;;;;;;;;;;;;28.75;30.04;98643.06;5077964;28;20410;-88
2023/05/25 00:42:02;;;;;;;;;;;;;;;28.90;29.79;98644.16;5075180;28;19942;-88
2023/05/25 00:44:28;;;;;;;;;;;;;;;29.05;29.74;98645.31;5075299;28;19917;-88
2023/05/25 00:46:54;;;;;;;;;;;;;;;29.19;29.53;98649.72;5073639;28;19946;-88
2023/05/25 00:49:21;;;;;;;;;;;;;;;29.41;29.60;98651.34;5087425;28;19920;-88
2023/05/25 00:51:47;;;;;;;;;;;;;;;29.55;29.68;98640.78;5077052;28;20373;-88
2023/05/25 00:54:14;;;;;;;;;;;;;;;29.62;29.31;98643.34;5075913;28;19926;-88
2023/05/25 00:56:43;;;;;;;;;;;;;;;29.57;29.49;98646.78;5081035;28;20003;-88
2023/05/25 00:59:10;;;;;;;;;;;;;;;29.35;29.43;98644.69;5076296;28;20384;-88
2023/05/25 01:01:38;;;;;;;;;;;;;;;29.41;29.48;98636.41;5072507;28;20431;-88
2023/05/25 01:04:06;;;;;;;;;;;;;;;29.43;29.36;98639.56;5075166;28;20376;-87
2023/05/25 01:06:32;;;;;;;;;;;;;;;29.50;29.55;98636.47;5071964;28;20375;-88
2023/05/25 01:09:01;;;;;;;;;;;;;;;29.65;29.58;98634.75;5064454;28;19925;-87
2023/05/25 01:11:31;;;;;;;;;;;;;;;29.83;29.04;98646.25;5071103;28;19920;-87
2023/05/25 01:13:57;;;;;;;;;;;;;;;29.70;28.87;98639.03;5079610;28;19947;-87
2023/05/25 01:16:24;;;;;;;;;;;;;;;29.56;29.05;98643.16;5068942;28;19920;-88
2023/05/25 01:18:51;;;;;;;;;;;;;;;29.45;29.03;98633.47;5074840;28;19924;-88
2023/05/25 01:21:25;;;;;;;;;;;;;;;29.43;29.19;98637.53;5075114;28;20371;-88
2023/05/25 01:23:54;;;;;;;;;;;;;;;29.29;29.54;98643.69;5069283;28;19955;-88
2023/05/25 01:26:22;;;;;;;;;;;;;;;29.26;29.15;98641.78;5066987;28;19929;-88
2023/05/25 01:28:50;;;;;;;;;;;;;;;29.17;29.59;98643.69;5071633;28;20015;-88
2023/05/25 01:31:18;;;;;;;;;;;;;;;29.22;29.53;98641.09;5071476;28;19920;-87
2023/05/25 01:33:45;;;;;;;;;;;;;;;29.24;29.38;98643.50;5067129;28;19921;-88
2023/05/25 01:36:12;;;;;;;;;;;;;;;29.19;29.47;98652.53;5072247;28;19928;-88
2023/05/25 01:38:38;;;;;;;;;;;;;;;29.04;29.25;98649.38;5073715;28;19920;-88
2023/05/25 01:41:04;;;;;;;;;;;;;;;29.09;29.39;98648.78;5076122;28;19967;-88
2023/05/25 01:43:30;;;;;;;;;;;;;;;29.22;29.55;98638.25;5078443;28;19983;-88
2023/05/25 01:46:19;;;;;;;;;;;;;;;29.23;29.59;98645.53;5083990;28;19920;-88
2023/05/25 01:48:52;;;;;;;;;;;;;;;29.23;29.59;98648.34;5062987;28;19928;-88
2023/05/25 01:51:31;;;;;;;;;;;;;;;29.00;29.85;98647.91;5073152;28;19921;-89
2023/05/25 01:53:59;;;;;;;;;;;;;;;28.87;29.97;98645.06;5073205;28;19920;-88
2023/05/25 01:56:26;;;;;;;;;;;;;;;28.97;29.98;98641.13;5073138;28;19935;-88
2023/05/25 01:58:53;;;;;;;;;;;;;;;29.09;29.37;98645.16;5072503;28;20027;-88
2023/05/25 02:01:19;;;;;;;;;;;;;;;29.14;29.28;98644.59;5071193;28;19966;-88
2023/05/25 02:03:47;;;;;;;;;;;;;;;29.11;29.71;98643.47;5072338;28;20541;-88
2023/05/25 02:06:14;;;;;;;;;;;;;;;29.17;29.45;98641.63;5065578;28;19921;-88
2023/05/25 02:08:42;;;;;;;;;;;;;;;29.32;29.83;98647.63;5066685;28;19931;-88
2023/05/25 02:11:09;;;;;;;;;;;;;;;29.32;28.93;98644.81;5072180;28;19920;-88
2023/05/25 02:13:35;;;;;;;;;;;;;;;29.19;29.30;98639.19;5073525;28;19928;-88
2023/05/25 02:16:02;;;;;;;;;;;;;;;29.22;28.49;98641.09;5074854;28;19916;-88
2023/05/25 02:18:28;;;;;;;;;;;;;;;29.14;29.20;98644.59;5069807;28;19956;-88
2023/05/25 02:20:54;;;;;;;;;;;;;;;29.02;29.48;98640.53;5077268;28;20364;-88
2023/05/25 02:23:20;;;;;;;;;;;;;;;29.17;29.41;98638.03;5078595;28;19927;-88
2023/05/25 02:25:46;;;;;;;;;;;;;;;29.21;28.78;98631.03;5072591;28;19927;-88
2023/05/25 02:28:15;;;;;;;;;;;;;;;29.02;29.34;98634.88;5075200;28;19917;-88
2023/05/25 02:30:41;;;;;;;;;;;;;;;28.97;29.20;98626.97;5074254;28;19974;-88
2023/05/25 02:33:07;;;;;;;;;;;;;;;28.92;29.35;98630.38;5071445;28;19920;-88
2023/05/25 02:35:33;;;;;;;;;;;;;;;28.93;29.71;98629.13;5076045;28;19967;-88
2023/05/25 02:37:59;;;;;;;;;;;;;;;29.10;29.29;98626.97;5074974;28;19920;-88
2023/05/25 02:40:25;;;;;;;;;;;;;;;29.16;29.43;98634.41;5073820;28;19944;-88
2023/05/25 02:42:51;;;;;;;;;;;;;;;29.16;29.38;98625.94;5075638;28;19921;-88
2023/05/25 02:45:17;;;;;;;;;;;;;;;29.03;29.06;98632.84;5084351;28;19920;-88
2023/05/25 02:47:43;;;;;;;;;;;;;;;28.76;30.11;98633.31;5075470;28;19932;-88
2023/05/25 02:50:10;;;;;;;;;;;;;;;28.92;29.30;98633.19;5078184;28;19926;-88
2023/05/25 02:52:36;;;;;;;;;;;;;;;28.80;29.98;98622.69;5082714;28;19924;-88
2023/05/25 02:55:02;;;;;;;;;;;;;;;28.75;29.79;98623.28;5074556;28;20258;-88
2023/05/25 02:57:28;;;;;;;;;;;;;;;28.73;29.71;98612.41;5072071;28;19927;-88
2023/05/25 02:59:54;;;;;;;;;;;;;;;28.80;29.83;98616.25;5079073;28;19931;-88
2023/05/25 03:02:24;;;;;;;;;;;;;;;28.93;28.93;98619.84;5073750;28;20299;-88
2023/05/25 03:04:52;;;;;;;;;;;;;;;28.79;29.35;98618.28;5074844;28;19921;-88
2023/05/25 03:07:19;;;;;;;;;;;;;;;28.87;29.25;98610.38;5078613;28;19920;-88
2023/05/25 03:09:45;;;;;;;;;;;;;;;28.72;29.40;98613.66;5072710;28;19994;-88
2023/05/25 03:12:11;;;;;;;;;;;;;;;28.59;29.57;98617.75;5073228;28;19963;-88
2023/05/25 03:14:37;;;;;;;;;;;;;;;28.55;29.93;98615.00;5078930;28;19921;-89
2023/05/25 03:17:03;;;;;;;;;;;;;;;28.68;29.64;98612.97;5073190;28;20007;-88
2023/05/25 03:19:31;;;;;;;;;;;;;;;28.84;29.79;98614.09;5071900;28;20384;-88
2023/05/25 03:21:57;;;;;;;;;;;;;;;28.85;28.97;98613.63;5075267;28;20362;-88
2023/05/25 03:24:23;;;;;;;;;;;;;;;28.89;29.70;98620.00;5073608;28;20010;-88
2023/05/25 03:26:49;;;;;;;;;;;;;;;29.11;29.82;98623.66;5071974;28;19946;-88
2023/05/25 03:29:15;;;;;;;;;;;;;;;29.27;29.38;98632.03;5056813;28;19924;-88
2023/05/25 03:31:41;;;;;;;;;;;;;;;29.21;29.12;98635.91;5067258;28;19924;-88
2023/05/25 03:34:07;;;;;;;;;;;;;;;29.12;29.35;98638.59;5071117;28;20368;-88
2023/05/25 03:36:33;;;;;;;;;;;;;;;29.14;29.60;98633.28;5073766;28;19920;-88
2023/05/25 03:38:59;;;;;;;;;;;;;;;29.28;29.46;98638.50;5077344;28;19916;-88
2023/05/25 03:41:26;;;;;;;;;;;;;;;29.28;29.12;98644.94;5073873;28;20300;-88
2023/05/25 03:43:52;;;;;;;;;;;;;;;29.18;29.44;98645.28;5076079;28;20007;-88
2023/05/25 03:46:18;;;;;;;;;;;;;;;29.24;29.39;98649.91;5076251;28;19979;-88
2023/05/25 03:48:44;;;;;;;;;;;;;;;29.03;29.46;98647.00;5068340;28;20404;-88
2023/05/25 03:51:10;;;;;;;;;;;;;;;29.15;29.57;98644.13;5073918;28;20399;-88
2023/05/25 03:53:36;;;;;;;;;;;;;;;29.11;28.92;98651.16;5087664;28;19920;-88
2023/05/25 03:56:02;;;;;;;;;;;;;;;28.83;29.90;98647.22;5070009;28;19917;-88
2023/05/25 03:58:28;;;;;;;;;;;;;;;29.12;29.02;98655.56;5066574;28;20058;-88
2023/05/25 04:00:55;;;;;;;;;;;;;;;29.12;29.39;98652.75;5071715;28;19924;-88
2023/05/25 04:03:21;;;;;;;;;;;;;;;29.08;29.43;98652.84;5074522;28;19970;-88
2023/05/25 04:05:47;;;;;;;;;;;;;;;28.85;29.96;98655.25;5073624;28;20273;-88
2023/05/25 04:08:18;;;;;;;;;;;;;;;28.73;29.67;98643.50;5075353;28;19943;-88
2023/05/25 04:10:45;;;;;;;;;;;;;;;28.70;30.33;98646.44;5074114;28;19928;-88
2023/05/25 04:13:11;;;;;;;;;;;;;;;28.96;29.76;98659.34;5070659;28;19928;-89
2023/05/25 04:16:18;;;;;;;;;;;;;;;29.05;29.20;98664.28;5069473;28;19927;-89
2023/05/25 04:18:44;;;;;;;;;;;;;;;28.92;29.39;98664.28;5092733;28;20017;-88
2023/05/25 04:21:10;;;;;;;;;;;;;;;28.88;30.15;98669.28;5070108;28;19970;-88
2023/05/25 04:23:36;;;;;;;;;;;;;;;29.10;28.56;98666.56;5072296;28;20395;-89
2023/05/25 04:26:02;;;;;;;;;;;;;;;28.71;29.74;98668.59;5072618;28;20007;-88
2023/05/25 04:28:28;;;;;;;;;;;;;;;28.57;29.97;98668.22;5072577;28;19958;-88
2023/05/25 04:30:55;;;;;;;;;;;;;;;28.48;30.40;98673.75;5074038;28;19952;-88
2023/05/25 04:33:22;;;;;;;;;;;;;;;28.75;29.08;98668.50;5073450;28;20019;-88
2023/05/25 04:35:49;;;;;;;;;;;;;;;28.42;30.52;98676.34;5079964;28;19973;-91
2023/05/25 04:38:16;;;;;;;;;;;;;;;28.47;29.55;98675.00;5078053;28;19924;-90
2023/05/25 04:40:45;;;;;;;;;;;;;;;28.47;29.90;98675.00;5067827;28;20015;-91
2023/05/25 04:43:12;;;;;;;;;;;;;;;28.74;29.92;98681.03;5067832;28;20395;-91
2023/05/25 04:45:38;;;;;;;;;;;;;;;28.79;29.73;98682.50;5076826;28;20280;-91
2023/05/25 04:48:04;;;;;;;;;;;;;;;28.70;29.68;98678.34;5068318;28;20019;-93
2023/05/25 04:50:30;;;;;;;;;;;;;;;28.74;29.82;98675.38;5073676;28;19921;-92
2023/05/25 04:52:56;;;;;;;;;;;;;;;28.65;29.44;98678.91;5061027;28;19935;-91
2023/05/25 04:55:22;;;;;;;;;;;;;;;28.37;30.48;98688.19;5067836;28;20011;-93
2023/05/25 04:57:48;;;;;;;;;;;;;;;28.48;30.70;98691.50;5072130;28;19920;-89
2023/05/25 05:00:15;;;;;;;;;;;;;;;28.62;30.20;98693.91;5069337;28;19936;-83
2023/05/25 05:02:42;;;;;;;;;;;;;;;28.89;29.55;98690.66;5071183;28;20019;-85
2023/05/25 05:05:08;;;;;;;;;;;;;;;28.65;29.78;98700.69;5069119;28;20375;-89
2023/05/25 05:07:34;;;;;;;;;;;;;;;28.52;30.34;98688.56;5066532;28;19928;-86
2023/05/25 05:10:00;;;;;;;;;;;;;;;28.35;30.75;98698.38;5070988;28;20292;-91
2023/05/25 05:12:26;;;;;;;;;;;;;;;28.28;29.93;98702.19;5073277;28;19979;-90
2023/05/25 05:14:54;;;;;;;;;;;;;;;28.21;29.40;98704.44;5053718;28;20498;-91
2023/05/25 05:17:21;;;;;;;;;;;;;;;27.66;30.98;98706.31;5072773;28;19920;-91
2023/05/25 05:19:47;;;;;;;;;;;;;;;27.66;30.80;98716.78;5082364;28;19966;-90
2023/05/25 05:22:14;;;;;;;;;;;;;;;27.54;31.21;98711.91;5074020;28;19920;-91
2023/05/25 05:24:41;;;;;;;;;;;;;;;27.59;31.78;98712.13;5073750;28;20018;-91
2023/05/25 05:27:07;;;;;;;;;;;;;;;27.57;31.27;98727.91;5071731;28;19923;-91
2023/05/25 05:29:33;;;;;;;;;;;;;;;27.87;30.96;98724.69;5060338;28;20019;-92
2023/05/25 05:31:59;;;;;;;;;;;;;;;27.04;31.92;98720.75;5069568;28;19921;-91
2023/05/25 05:34:25;;;;;;;;;;;;;;;27.65;31.47;98723.69;5073502;28;20403;-90
2023/05/25 05:36:51;;;;;;;;;;;;;;;27.27;32.94;98724.22;5074891;28;19925;-92
2023/05/25 05:39:17;;;;;;;;;;;;;;;27.65;31.34;98724.50;5090061;28;19916;-91
2023/05/25 05:41:44;;;;;;;;;;;;;;;27.90;31.08;98721.78;5094095;28;19916;-90
2023/05/25 05:44:11;;;;;;;;;;;;;;;28.16;30.86;98716.25;5094196;28;20015;-90
2023/05/25 05:46:37;;;;;;;;;;;;;;;28.20;31.15;98725.41;5086637;28;19927;-90
2023/05/25 05:49:03;;;;;;;;;;;;;;;28.31;30.70;98721.03;5065723;28;19978;-90
2023/05/25 05:51:29;;;;;;;;;;;;;;;28.55;29.65;98719.53;5073608;28;19972;-91
2023/05/25 05:53:55;;;;;;;;;;;;;;;28.67;29.71;98720.81;5073098;28;19916;-90
2023/05/25 05:56:21;;;;;;;;;;;;;;;28.65;29.97;98726.13;5073635;28;19928;-90
2023/05/25 05:58:48;;;;;;;;;;;;;;;28.42;31.35;98726.41;5068752;28;20384;-91
2023/05/25 06:01:16;;;;;;;;;;;;;;;28.52;30.35;98728.91;5078113;28;19924;-90
2023/05/25 06:03:42;;;;;;;;;;;;;;;28.72;29.47;98731.56;5070623;28;19962;-91
2023/05/25 06:06:09;;;;;;;;;;;;;;;28.85;29.71;98738.03;5067335;28;20427;-91
2023/05/25 06:08:35;;;;;;;;;;;;;;;28.45;30.20;98743.22;5077387;28;20376;-91
2023/05/25 06:11:01;;;;;;;;;;;;;;;28.63;30.49;98737.91;5070199;28;19932;-91
2023/05/25 06:13:27;;;;;;;;;;;;;;;28.79;29.45;98751.16;5073827;28;19917;-91
2023/05/25 06:15:53;;;;;;;;;;;;;;;28.13;30.46;98751.03;5073351;28;20265;-91
2023/05/25 06:18:19;;;;;;;;;;;;;;;28.25;29.94;98750.28;5073243;28;19928;-90
2023/05/25 06:20:45;;;;;;;;;;;;;;;28.60;28.89;98752.91;5070124;28;20347;-90
2023/05/25 06:23:12;;;;;;;;;;;;;;;28.24;30.15;98760.03;5051837;28;20334;-90
2023/05/25 06:25:39;;;;;;;;;;;;;;;27.93;30.35;98757.59;5053625;28;19928;-90
2023/05/25 06:28:05;;;;;;;;;;;;;;;28.03;30.58;98758.56;5057323;28;20303;-90
2023/05/25 06:30:31;;;;;;;;;;;;;;;28.30;30.25;98767.50;5073220;28;20047;-91
2023/05/25 06:32:57;;;;;;;;;;;;;;;28.51;29.10;98764.06;5073491;28;20078;-91
2023/05/25 06:35:23;;;;;;;;;;;;;;;28.22;29.68;98766.09;5087242;28;19920;-91
2023/05/25 06:37:49;;;;;;;;;;;;;;;28.51;29.35;98766.88;5071298;28;19921;-91
2023/05/25 06:40:15;;;;;;;;;;;;;;;27.98;30.78;98773.19;5073322;28;19963;-91
2023/05/25 06:42:42;;;;;;;;;;;;;;;28.39;30.28;98769.66;5059843;28;19924;-92
2023/05/25 06:45:08;;;;;;;;;;;;;;;28.40;28.92;98766.38;5073264;28;19916;-91
2023/05/25 06:47:34;;;;;;;;;;;;;;;27.95;31.11;98772.06;5073127;28;19916;-90
2023/05/25 06:50:00;;;;;;;;;;;;;;;28.31;29.25;98774.72;5073472;28;19916;-90
2023/05/25 06:52:30;;;;;;;;;;;;;;;28.26;29.05;98768.84;5073070;28;19916;-91
2023/05/25 06:54:56;;;;;;;;;;;;;;;27.74;30.17;98778.25;5066470;28;20403;-90
2023/05/25 06:57:22;;;;;;;;;;;;;;;27.59;30.93;98787.50;5053011;28;19917;-92
2023/05/25 06:59:49;;;;;;;;;;;;;;;27.66;30.73;98776.84;5088056;28;19924;-90
2023/05/25 07:02:15;;;;;;;;;;;;;;;28.05;30.11;98778.69;5078080;28;19931;-92
2023/05/25 07:04:41;;;;;;;;;;;;;;;27.84;30.08;98782.81;5072075;28;19931;-90
2023/05/25 07:07:08;;;;;;;;;;;;;;;27.46;32.78;98784.63;5074719;28;19917;-92
2023/05/25 07:09:34;;;;;;;;;;;;;;;27.51;30.98;98786.91;5079355;28;19916;-91
2023/05/25 07:12:00;;;;;;;;;;;;;;;27.99;31.83;98795.38;5085088;28;20294;-91
2023/05/25 07:14:26;;;;;;;;;;;;;;;28.36;30.75;98785.47;5056762;28;19917;-91
2023/05/25 07:16:52;;;;;;;;;;;;;;;28.48;31.32;98778.28;5056385;28;20372;-91
2023/05/25 07:19:18;;;;;;;;;;;;;;;28.74;28.91;98785.63;5068462;28;19916;-90
2023/05/25 07:21:44;;;;;;;;;;;;;;;28.54;29.94;98784.97;5076246;28;19920;-90
2023/05/25 07:24:10;;;;;;;;;;;;;;;28.15;30.27;98793.72;5077536;28;19920;-88
2023/05/25 07:26:36;;;;;;;;;;;;;;;28.38;30.02;98794.28;5072203;28;19920;-90
2023/05/25 07:29:02;;;;;;;;;;;;;;;28.37;30.14;98795.53;5056760;28;19925;-91
2023/05/25 07:31:28;;;;;;;;;;;;;;;28.63;30.43;98785.13;5055987;28;19921;-89
2023/05/25 07:33:54;;;;;;;;;;;;;;;29.03;30.13;98791.22;5056407;28;19924;-90
2023/05/25 07:36:23;;;;;;;;;;;;;;;29.23;28.55;98791.81;5060710;28;19920;-92
2023/05/25 07:38:49;;;;;;;;;;;;;;;28.81;29.79;98796.72;5074963;28;19916;-91
2023/05/25 07:41:15;;;;;;;;;;;;;;;28.53;29.96;98794.69;5076352;28;19920;-91
2023/05/25 07:43:41;;;;;;;;;;;;;;;28.52;29.70;98793.13;5062159;28;19951;-89
2023/05/25 07:46:07;;;;;;;;;;;;;;;28.21;29.85;98795.59;5056828;28;19917;-90
2023/05/25 07:48:33;;;;;;;;;;;;;;;28.16;29.81;98795.31;5058832;28;19916;-92
2023/05/25 07:50:59;;;;;;;;;;;;;;;28.04;30.90;98800.47;5075822;28;19916;-91
2023/05/25 07:53:25;;;;;;;;;;;;;;;28.44;29.91;98788.88;5075785;28;19923;-90
2023/05/25 07:55:51;;;;;;;;;;;;;;;28.51;29.19;98788.69;5074355;28;20057;-90
2023/05/25 07:58:17;;;;;;;;;;;;;;;28.47;31.12;98800.06;5074398;28;19986;-91
2023/05/25 08:00:43;;;;;;;;;;;;;;;28.75;28.86;98795.69;5076009;28;20007;-90
2023/05/25 08:03:09;;;;;;;;;;;;;;;28.41;30.81;98798.25;5073281;28;19916;-91
2023/05/25 08:05:35;;;;;;;;;;;;;;;28.57;29.59;98795.38;5074524;28;19916;-91
2023/05/25 08:08:02;;;;;;;;;;;;;;;28.78;29.49;98794.78;5073346;28;19928;-89
2023/05/25 08:10:31;;;;;;;;;;;;;;;28.95;29.57;98792.66;5073944;28;19923;-91
2023/05/25 08:12:57;;;;;;;;;;;;;;;29.03;29.60;98797.66;5075794;28;19955;-91
2023/05/25 08:15:23;;;;;;;;;;;;;;;28.97;28.57;98793.78;5075455;28;19941;-89
2023/05/25 08:17:50;;;;;;;;;;;;;;;28.78;29.98;98805.31;5075314;28;19916;-91
2023/05/25 08:20:16;;;;;;;;;;;;;;;28.50;30.24;98804.84;5067698;28;19924;-91
2023/05/25 08:22:42;;;;;;;;;;;;;;;28.63;29.27;98804.94;5055689;28;19916;-89
2023/05/25 08:25:08;;;;;;;;;;;;;;;28.73;29.38;98796.13;5055446;28;19916;-92
2023/05/25 08:27:34;;;;;;;;;;;;;;;28.91;29.18;98797.63;5054937;28;19971;-89
2023/05/25 08:30:01;;;;;;;;;;;;;;;29.09;29.94;98798.66;5055081;28;19925;-91
2023/05/25 08:32:27;;;;;;;;;;;;;;;29.21;31.08;98802.78;5077447;28;19927;-91
2023/05/25 08:34:53;;;;;;;;;;;;;;;28.54;31.43;98799.88;5092278;28;19919;-91
2023/05/25 08:37:21;;;;;;;;;;;;;;;28.19;32.27;98800.09;5084306;28;19985;-91
2023/05/25 08:39:47;;;;;;;;;;;;;;;28.80;29.48;98803.59;5075271;28;19924;-91
2023/05/25 08:42:13;;;;;;;;;;;;;;;28.93;29.55;98800.78;5074608;28;20421;-91
2023/05/25 08:44:39;;;;;;;;;;;;;;;28.90;29.59;98796.84;5074656;28;19923;-90
2023/05/25 08:47:06;;;;;;;;;;;;;;;29.09;30.23;98806.34;5074507;28;19923;-90
2023/05/25 08:49:37;;;;;;;;;;;;;;;29.59;30.33;98816.94;5074702;28;19912;-90
2023/05/25 08:52:03;;;;;;;;;;;;;;;29.89;29.83;98807.84;5075484;28;19927;-89
2023/05/25 08:54:36;;;;;;;;;;;;;;;30.05;28.80;98808.50;5079375;28;20431;-90
2023/05/25 08:57:24;;;;;;;;;;;;;;;29.69;29.07;98805.25;5074006;28;19927;-91
2023/05/25 09:00:02;;;;;;;;;;;;;;;29.77;29.44;98797.34;5074658;28;19977;-90
2023/05/25 09:02:34;;;;;;;;;;;;;;;29.55;28.98;98800.03;5074411;28;20007;-90
2023/05/25 09:05:01;;;;;;;;;;;;;;;29.72;29.34;98800.72;5074266;28;20324;-90
2023/05/25 09:07:28;;;;;;;;;;;;;;;30.08;30.40;98799.06;5074220;28;19923;-91
2023/05/25 09:09:55;;;;;;;;;;;;;;;30.22;29.36;98792.13;5074274;28;20332;-91
2023/05/25 09:12:21;;;;;;;;;;;;;;;30.33;28.90;98809.56;5058092;28;19982;-91
2023/05/25 09:14:47;;;;;;;;;;;;;;;30.18;28.94;98799.94;5053987;28;19917;-90
2023/05/25 09:17:14;;;;;;;;;;;;;;;30.25;28.24;98810.22;5053897;28;20423;-91
2023/05/25 09:19:40;;;;;;;;;;;;;;;30.16;28.62;98805.25;5054224;28;19970;-91
2023/05/25 09:22:06;;;;;;;;;;;;;;;30.24;28.41;98803.78;5075354;28;20295;-90
2023/05/25 09:24:33;;;;;;;;;;;;;;;30.17;29.50;98804.03;5070881;28;19927;-90
2023/05/25 09:26:59;;;;;;;;;;;;;;;30.40;28.74;98802.81;5060127;28;19924;-91
2023/05/25 09:29:25;;;;;;;;;;;;;;;30.21;28.65;98807.53;5064551;28;19928;-91
2023/05/25 09:31:52;;;;;;;;;;;;;;;30.30;29.10;98810.44;5076785;28;20323;-90
2023/05/25 09:34:18;;;;;;;;;;;;;;;30.63;29.84;98806.00;5073826;28;20300;-90
2023/05/25 09:36:44;;;;;;;;;;;;;;;30.61;29.36;98813.38;5064467;28;20334;-90
2023/05/25 09:39:11;;;;;;;;;;;;;;;30.70;28.79;98802.09;5074264;28;20323;-90
2023/05/25 09:41:40;;;;;;;;;;;;;;;31.00;28.77;98809.09;5074139;28;20440;-91
2023/05/25 09:44:06;;;;;;;;;;;;;;;30.56;28.77;98809.09;5072862;28;19963;-89
2023/05/25 09:46:35;;;;;;;;;;;;;;;30.32;28.70;98807.94;5079654;28;19921;-89
2023/05/25 09:49:02;;;;;;;;;;;;;;;30.18;27.76;98802.75;5071322;28;19920;-89
2023/05/25 09:51:32;;;;;;;;;;;;;;;30.17;27.57;98801.19;5073542;28;20011;-88
2023/05/25 09:54:01;;;;;;;;;;;;;;;30.42;28.58;98817.31;5073511;28;19963;-88
2023/05/25 09:56:29;;;;;;;;;;;;;;;30.61;28.81;98808.50;5074045;28;19920;-88
2023/05/25 09:58:56;;;;;;;;;;;;;;;30.83;29.43;98802.03;5073718;28;20368;-88
2023/05/25 10:01:22;;;;;;;;;;;;;;;30.95;28.69;98807.66;5076056;28;19920;-88
2023/05/25 10:03:49;;;;;;;;;;;;;;;30.90;27.63;98804.63;5064504;28;19916;-88
2023/05/25 10:06:16;;;;;;;;;;;;;;;30.70;27.31;98810.63;5072812;28;19962;-90
2023/05/25 10:08:43;;;;;;;;;;;;;;;30.43;28.46;98811.22;5072899;28;19917;-91
2023/05/25 10:11:10;;;;;;;;;;;;;;;30.19;29.16;98814.91;5077054;28;19928;-90
2023/05/25 10:13:37;;;;;;;;;;;;;;;30.28;28.83;98815.78;5073194;28;19916;-90
2023/05/25 10:16:03;;;;;;;;;;;;;;;30.31;28.01;98814.84;5073257;28;19916;-90
2023/05/25 10:18:31;;;;;;;;;;;;;;;30.51;28.42;98811.72;5072246;28;20300;-91
2023/05/25 10:21:01;;;;;;;;;;;;;;;30.71;28.19;98801.63;5072972;28;19917;-91
2023/05/25 10:23:40;;;;;;;;;;;;;;;30.65;28.00;98800.66;5070931;28;19921;-90
2023/05/25 10:26:07;;;;;;;;;;;;;;;30.15;28.90;98811.41;5070138;28;20002;-90
2023/05/25 10:28:36;;;;;;;;;;;;;;;30.05;29.15;98804.84;5072021;28;19924;-93
2023/05/25 10:31:03;;;;;;;;;;;;;;;30.35;28.87;98807.03;5068916;28;20287;-93
2023/05/25 10:33:29;;;;;;;;;;;;;;;30.41;28.80;98802.34;5073668;28;20261;-93
2023/05/25 10:35:56;;;;;;;;;;;;;;;30.38;28.20;98806.13;5067829;28;19921;-93
2023/05/25 10:38:25;;;;;;;;;;;;;;;29.90;29.53;98796.06;5070882;28;19930;-94
2023/05/25 10:40:51;;;;;;;;;;;;;;;29.73;30.16;98800.28;5074058;28;20042;-93
2023/05/25 10:43:18;;;;;;;;;;;;;;;30.25;29.96;98793.22;5075210;28;20326;-91
2023/05/25 10:45:44;;;;;;;;;;;;;;;30.05;29.18;98796.38;5072096;28;19920;-93
2023/05/25 10:48:10;;;;;;;;;;;;;;;29.69;29.36;98795.94;5074723;28;19977;-90
2023/05/25 10:50:36;;;;;;;;;;;;;;;29.87;29.92;98799.78;5079229;28;19920;-93
2023/05/25 10:53:04;;;;;;;;;;;;;;;29.65;29.93;98804.56;5077361;28;19920;-92
2023/05/25 10:55:41;;;;;;;;;;;;;;;30.16;29.90;98793.94;5078825;28;19923;-93
2023/05/25 10:58:09;;;;;;;;;;;;;;;30.22;30.48;98792.13;5075427;28;19956;-88
2023/05/25 11:00:35;;;;;;;;;;;;;;;30.50;28.23;98791.09;5075153;28;20073;-89
2023/05/25 11:03:02;;;;;;;;;;;;;;;30.57;28.79;98798.56;5074698;28;19928;-89
2023/05/25 11:05:32;;;;;;;;;;;;;;;30.33;27.82;98806.72;5075202;28;19924;-89
2023/05/25 11:08:03;;;;;;;;;;;;;;;30.23;28.26;98790.06;5075111;28;19920;-89
2023/05/25 11:10:47;;;;;;;;;;;;;;;30.22;28.88;98794.94;5069945;28;20273;-89
2023/05/25 11:13:22;;;;;;;;;;;;;;;29.93;29.75;98802.84;5075440;28;19916;-89
2023/05/25 11:16:07;;;;;;;;;;;;;;;29.87;28.92;98799.78;5085271;28;19920;-87
2023/05/25 11:18:37;;;;;;;;;;;;;;;30.08;29.95;98799.06;5086355;28;19920;-90
2023/05/25 11:21:10;;;;;;;;;;;;;;;30.33;29.92;98803.88;5071460;28;20328;-91
2023/05/25 11:23:38;;;;;;;;;;;;;;;29.81;29.89;98801.63;5075123;28;19917;-89
2023/05/25 11:26:05;;;;;;;;;;;;;;;29.49;29.09;98795.41;5074975;28;19916;-88
2023/05/25 11:28:31;;;;;;;;;;;;;;;29.35;30.35;98793.84;5072469;28;20012;-90
2023/05/25 11:30:58;;;;;;;;;;;;;;;29.85;29.96;98798.69;5079625;28;19985;-91
2023/05/25 11:33:24;;;;;;;;;;;;;;;30.33;28.37;98806.72;5078711;28;19920;-89
2023/05/25 11:35:51;;;;;;;;;;;;;;;30.18;30.52;98793.50;5073630;28;19947;-91
2023/05/25 11:38:17;;;;;;;;;;;;;;;30.36;29.52;98802.19;5075264;28;19917;-91
2023/05/25 11:40:43;;;;;;;;;;;;;;;30.40;29.45;98805.66;5075191;28;19920;-91
2023/05/25 11:43:10;;;;;;;;;;;;;;;30.34;28.11;98796.19;5073005;28;19928;-90
2023/05/25 11:45:37;;;;;;;;;;;;;;;30.55;28.54;98782.00;5071488;28;19920;-89
2023/05/25 11:48:03;;;;;;;;;;;;;;;30.62;30.38;98775.28;5075342;28;20409;-92
2023/05/25 11:50:29;;;;;;;;;;;;;;;30.84;30.09;98787.38;5073840;28;19925;-90
2023/05/25 11:52:55;;;;;;;;;;;;;;;30.84;28.05;98789.44;5069561;28;19973;-90
2023/05/25 11:55:22;;;;;;;;;;;;;;;30.61;29.21;98790.72;5074332;28;19956;-91
2023/05/25 11:57:53;;;;;;;;;;;;;;;30.76;29.45;98775.53;5074737;28;20372;-88
2023/05/25 12:00:23;;;;;;;;;;;;;;;30.77;29.77;98774.28;5073033;28;19967;-92
2023/05/25 12:02:49;;;;;;;;;;;;;;;30.60;29.25;98786.28;5071912;28;19917;-90
2023/05/25 12:05:15;;;;;;;;;;;;;;;30.93;29.18;98781.00;5074584;28;19946;-91
2023/05/25 12:07:43;;;;;;;;;;;;;;;30.85;28.52;98774.81;5074224;28;20007;-94
2023/05/25 12:10:10;;;;;;;;;;;;;;;30.97;29.22;98773.94;5074559;28;19925;-93
2023/05/25 12:12:46;;;;;;;;;;;;;;;31.01;29.49;98773.81;5074678;28;20307;-91
2023/05/25 12:15:17;;;;;;;;;;;;;;;31.30;28.60;98774.25;5070303;28;19928;-92
2023/05/25 12:17:43;;;;;;;;;;;;;;;31.38;28.63;98769.88;5072151;28;19925;-90
2023/05/25 12:20:11;;;;;;;;;;;;;;;31.30;29.75;98780.72;5074097;28;19924;-92
2023/05/25 12:22:40;;;;;;;;;;;;;;;31.59;29.97;98776.75;5075294;28;19927;-92
2023/05/25 12:25:07;;;;;;;;;;;;;;;31.75;28.60;98780.09;5075121;28;19917;-92
2023/05/25 12:27:33;;;;;;;;;;;;;;;31.18;29.87;98784.44;5075743;28;20343;-92
2023/05/25 12:29:59;;;;;;;;;;;;;;;31.08;28.60;98788.50;5080628;28;20449;-91
2023/05/25 12:32:25;;;;;;;;;;;;;;;30.80;28.09;98783.13;5077873;28;20276;-91
2023/05/25 12:35:00;;;;;;;;;;;;;;;30.82;30.06;98783.44;5073219;28;20365;-91
2023/05/25 12:37:26;;;;;;;;;;;;;;;31.09;28.43;98780.75;5079271;28;19916;-91
2023/05/25 12:39:52;;;;;;;;;;;;;;;31.04;27.60;98793.50;5087030;28;19925;-92
2023/05/25 12:42:18;;;;;;;;;;;;;;;30.87;28.39;98782.84;5074944;28;19924;-91
2023/05/25 12:44:45;;;;;;;;;;;;;;;30.78;28.96;98783.59;5074801;28;19917;-90
2023/05/25 12:47:12;;;;;;;;;;;;;;;30.49;29.21;98783.84;5086329;28;20316;-91